US-0090 weather

Davison Restricted Landing Area
Minork, Illinois, United States

Public forecast

Using degrees Fahrenheit for public forecast. Weather courtesy of forecast.io.

METAR (pilot weather report)

Closest report is Marshall County Airport, 13.3 nm (24.6 km) WNW. Retrieved 2019/06/27 11:35 UTC (23 minutes ago):

KC75 271135Z AUTO 14006KT 10SM CLR 20/19 A3014 RMK AO2 T02030190

TAF (pilot weather forecast)

Closest forecast is Central Illinois Regional Airport at Bloomington-Normal, 28.0 nm (51.9 km) SSE. Retrieved 2019/06/27 06:22 UTC (6 hours ago):

TAF KBMI 270520Z 2706/2806 23012KT P6SM SKC FM270800 VRB05KT P6SM BKN250 FM271000 VRB03KT 4SM BR SCT250 FM271300 19005KT P6SM FEW250 FM271900 20010KT P6SM FEW045 BKN250